createdAt,value
2022-09-02T00:00:14.854Z,70.85
2022-09-02T00:01:14.896Z,70.92
2022-09-02T00:02:14.938Z,70.72
2022-09-02T00:03:14.970Z,71.46
2022-09-02T00:04:14.815Z,71.33
2022-09-02T00:05:14.804Z,71.15
2022-09-02T00:06:14.801Z,71.56
2022-09-02T00:07:14.802Z,71.36
2022-09-02T00:08:14.790Z,71.67
2022-09-02T00:09:14.764Z,72.69
2022-09-02T00:10:14.758Z,71.67
2022-09-02T00:11:14.748Z,71.36
2022-09-02T00:12:14.737Z,71.46
2022-09-02T00:13:14.734Z,71.15
2022-09-02T00:14:14.736Z,71.36
2022-09-02T00:15:14.707Z,71.87
2022-09-02T00:16:14.762Z,72.07
2022-09-02T00:17:14.690Z,72.48
2022-09-02T00:18:15.415Z,73.13
2022-09-02T00:19:14.673Z,72.38
2022-09-02T00:20:14.663Z,73.03
2022-09-02T00:21:14.658Z,72.92
2022-09-02T00:22:14.644Z,72.96
2022-09-02T00:23:14.644Z,73.03
2022-09-02T00:24:14.621Z,73.33
2022-09-02T00:25:14.629Z,73.13
2022-09-02T00:26:14.605Z,72.17
2022-09-02T00:27:14.590Z,71.97
2022-09-02T00:28:14.598Z,71.56
2022-09-02T00:29:14.595Z,71.33
2022-09-02T00:30:14.565Z,71.67
2022-09-02T00:31:14.577Z,71.87
2022-09-02T00:32:14.535Z,71.63
2022-09-02T00:33:14.548Z,71.15
2022-09-02T00:34:14.520Z,71.53
2022-09-02T00:35:14.513Z,71.53
2022-09-02T00:36:14.497Z,71.63
2022-09-02T00:37:14.495Z,70.72
2022-09-02T00:38:14.491Z,71.22
2022-09-02T00:39:14.478Z,71.33
2022-09-02T00:40:14.557Z,71.53
2022-09-02T00:41:14.457Z,71.53
2022-09-02T00:42:14.440Z,71.22
2022-09-02T00:43:14.475Z,71.12
2022-09-02T00:44:14.437Z,71.43
2022-09-02T00:45:14.419Z,71.39
2022-09-02T00:46:14.446Z,71.39
2022-09-02T00:47:14.402Z,70.81
2022-09-02T00:48:14.403Z,71.12
2022-09-02T00:49:14.382Z,70.89
2022-09-02T00:50:14.372Z,71.09
2022-09-02T00:51:14.361Z,71.29
2022-09-02T00:52:14.351Z,71.91
2022-09-02T00:53:14.400Z,71.50
2022-09-02T00:54:14.335Z,71.94
2022-09-02T00:55:14.337Z,72.24
2022-09-02T00:56:14.312Z,72.14
2022-09-02T00:57:14.307Z,71.12
2022-09-02T00:58:14.384Z,71.53
2022-09-02T00:59:14.289Z,72.24
2022-09-02T01:00:14.269Z,72.24
2022-09-02T01:01:14.454Z,72.34
2022-09-02T01:02:14.353Z,72.38
2022-09-02T01:03:14.327Z,72.24
2022-09-02T01:04:14.239Z,73.10
2022-09-02T01:05:14.230Z,72.96
2022-09-02T01:06:14.246Z,73.40
2022-09-02T01:07:14.210Z,72.86
2022-09-02T01:08:14.207Z,72.99
2022-09-02T01:09:14.194Z,73.30
2022-09-02T01:10:14.176Z,73.06
2022-09-02T01:11:14.173Z,73.60
2022-09-02T01:12:14.170Z,73.16
2022-09-02T01:13:14.170Z,72.96
2022-09-02T01:14:14.143Z,72.86
2022-09-02T01:15:14.134Z,72.96
2022-09-02T01:16:14.140Z,73.98
2022-09-02T01:17:14.120Z,72.86
2022-09-02T01:18:14.121Z,72.55
2022-09-02T01:19:14.147Z,72.55
2022-09-02T01:20:14.085Z,72.65
2022-09-02T01:21:14.083Z,72.86
2022-09-02T01:22:14.071Z,74.01
2022-09-02T01:23:14.139Z,73.50
2022-09-02T01:24:14.049Z,73.40
2022-09-02T01:25:14.067Z,72.89
2022-09-02T01:26:14.031Z,73.91
2022-09-02T01:27:14.029Z,73.50
2022-09-02T01:28:14.028Z,73.60
2022-09-02T01:29:14.005Z,74.01
2022-09-02T01:30:14.023Z,74.32
2022-09-02T01:31:14.093Z,73.71
2022-09-02T01:32:13.979Z,73.81
2022-09-02T01:33:14.034Z,72.96
2022-09-02T01:34:13.955Z,73.36
2022-09-02T01:35:13.952Z,72.86
2022-09-02T01:36:13.935Z,73.06
2022-09-02T01:37:13.926Z,73.47
2022-09-02T01:38:13.944Z,72.86
2022-09-02T01:39:13.915Z,73.43
2022-09-02T01:40:13.944Z,73.16
2022-09-02T01:41:13.884Z,71.43
2022-09-02T01:42:13.875Z,71.39
2022-09-02T01:43:13.949Z,72.82
2022-09-02T01:44:13.854Z,73.06
2022-09-02T01:45:13.932Z,72.45
2022-09-02T01:46:13.884Z,72.45
2022-09-02T01:47:13.831Z,72.21
2022-09-02T01:48:13.870Z,72.72
2022-09-02T01:49:13.808Z,72.11
2022-09-02T01:50:13.803Z,72.00
2022-09-02T01:51:13.792Z,71.36
2022-09-02T01:52:13.778Z,70.65
2022-09-02T01:53:13.828Z,71.29
2022-09-02T01:54:13.760Z,71.09
2022-09-02T01:55:13.755Z,70.68
2022-09-02T01:56:13.746Z,71.46
2022-09-02T01:57:13.739Z,71.15
2022-09-02T01:58:13.739Z,71.97
2022-09-02T01:59:13.718Z,71.77
2022-09-02T02:00:13.714Z,71.36
2022-09-02T02:01:13.800Z,71.36
2022-09-02T02:02:13.729Z,70.98
2022-09-02T02:03:13.703Z,71.60
2022-09-02T02:04:13.739Z,72.72
2022-09-02T02:05:13.658Z,72.92
2022-09-02T02:06:13.641Z,73.33
2022-09-02T02:07:13.634Z,73.84
2022-09-02T02:08:13.633Z,73.77
2022-09-02T02:09:13.610Z,73.77
2022-09-02T02:10:13.647Z,73.47
2022-09-02T02:11:13.599Z,74.29
2022-09-02T02:12:13.582Z,73.67
2022-09-02T02:13:13.688Z,74.90
2022-09-02T02:14:13.562Z,74.63
2022-09-02T02:15:13.557Z,74.73
2022-09-02T02:16:13.586Z,74.93
2022-09-02T02:17:13.541Z,74.73
2022-09-02T02:18:13.543Z,74.73
2022-09-02T02:19:13.531Z,75.65
2022-09-02T02:20:13.511Z,75.41
2022-09-02T02:21:13.499Z,74.69
2022-09-02T02:22:13.486Z,75.24
2022-09-02T02:23:13.589Z,74.52
2022-09-02T02:24:13.475Z,74.52
2022-09-02T02:25:13.469Z,74.83
2022-09-02T02:26:13.525Z,75.44
2022-09-02T02:27:13.441Z,75.24
2022-09-02T02:28:13.441Z,74.63
2022-09-02T02:29:13.443Z,74.29
2022-09-02T02:30:13.415Z,74.69
2022-09-02T02:31:13.428Z,73.67
2022-09-02T02:32:13.391Z,73.27
2022-09-02T02:33:13.382Z,74.90
2022-09-02T02:34:13.386Z,74.59
2022-09-02T02:35:13.364Z,74.90
2022-09-02T02:36:13.358Z,73.98
2022-09-02T02:37:13.426Z,74.59
2022-09-02T02:38:14.433Z,74.55
2022-09-02T02:39:13.350Z,75.37
2022-09-02T02:40:13.338Z,75.10
2022-09-02T02:41:13.311Z,74.90
2022-09-02T02:42:13.301Z,74.90
2022-09-02T02:43:13.293Z,74.66
2022-09-02T02:44:13.293Z,74.96
2022-09-02T02:45:15.339Z,74.35
2022-09-02T02:46:13.291Z,74.66
2022-09-02T02:47:13.251Z,74.96
2022-09-02T02:48:13.237Z,74.55
2022-09-02T02:49:13.241Z,75.41
2022-09-02T02:50:13.249Z,74.90
2022-09-02T02:51:13.233Z,75.82
2022-09-02T02:52:13.217Z,74.38
2022-09-02T02:53:14.138Z,75.71
2022-09-02T02:54:13.196Z,76.12
2022-09-02T02:55:13.175Z,75.71
2022-09-02T02:56:13.164Z,75.41
2022-09-02T02:57:13.156Z,75.71
2022-09-02T02:58:13.143Z,76.12
2022-09-02T02:59:13.164Z,75.61
2022-09-02T03:00:13.120Z,76.22
2022-09-02T03:01:13.119Z,76.63
2022-09-02T03:02:13.244Z,76.56
2022-09-02T03:03:13.101Z,75.85
2022-09-02T03:04:13.100Z,76.77
2022-09-02T03:05:13.082Z,76.22
2022-09-02T03:06:13.071Z,76.43
2022-09-02T03:07:13.067Z,76.29
2022-09-02T03:08:13.045Z,76.19
2022-09-02T03:09:13.060Z,76.09
2022-09-02T03:10:13.104Z,75.88
2022-09-02T03:11:13.022Z,74.96
2022-09-02T03:12:13.010Z,74.66
2022-09-02T03:13:13.007Z,74.55
2022-09-02T03:14:12.998Z,75.07
2022-09-02T03:15:12.979Z,74.86
2022-09-02T03:16:12.987Z,74.86
2022-09-02T03:17:12.957Z,75.07
2022-09-02T03:18:12.948Z,74.96
2022-09-02T03:19:12.956Z,75.23
2022-09-02T03:20:12.924Z,74.62
2022-09-02T03:21:12.919Z,75.44
2022-09-02T03:22:12.931Z,75.48
2022-09-02T03:23:12.898Z,75.48
2022-09-02T03:24:12.900Z,75.00
2022-09-02T03:25:12.884Z,75.57
2022-09-02T03:26:12.870Z,76.12
2022-09-02T03:27:12.867Z,76.90
2022-09-02T03:28:12.847Z,76.43
2022-09-02T03:29:12.864Z,76.93
2022-09-02T03:30:12.875Z,76.53
2022-09-02T03:31:12.851Z,76.84
2022-09-02T03:32:12.812Z,77.34
2022-09-02T03:33:12.806Z,77.45
2022-09-02T03:34:12.809Z,77.86
2022-09-02T03:35:12.786Z,77.00
2022-09-02T03:36:12.774Z,76.70
2022-09-02T03:37:12.798Z,76.63
2022-09-02T03:38:12.751Z,77.11
2022-09-02T03:39:12.759Z,76.39
2022-09-02T03:40:12.777Z,76.19
2022-09-02T03:41:12.727Z,76.59
2022-09-02T03:42:19.217Z,76.80
2022-09-02T03:43:13.759Z,76.39
2022-09-02T03:44:12.702Z,76.70
2022-09-02T03:45:12.699Z,76.70
2022-09-02T03:46:12.719Z,76.50
2022-09-02T03:47:12.666Z,76.70
2022-09-02T03:48:12.656Z,75.88
2022-09-02T03:49:12.648Z,76.29
2022-09-02T03:50:12.741Z,76.15
2022-09-02T03:51:12.622Z,76.09
2022-09-02T03:52:12.606Z,75.23
2022-09-02T03:53:18.245Z,75.54
2022-09-02T03:54:12.589Z,75.54
2022-09-02T03:55:12.621Z,75.44
2022-09-02T03:56:13.105Z,75.03
2022-09-02T03:57:12.566Z,75.34
2022-09-02T03:58:12.555Z,74.73
2022-09-02T03:59:12.546Z,75.10
2022-09-02T04:00:12.673Z,74.28
2022-09-02T04:01:12.549Z,74.49
2022-09-02T04:02:12.658Z,74.69
2022-09-02T04:03:12.527Z,75.10
2022-09-02T04:04:12.490Z,74.38
2022-09-02T04:05:15.639Z,74.38
2022-09-02T04:06:12.469Z,74.90
2022-09-02T04:07:12.468Z,75.34
2022-09-02T04:08:12.453Z,75.03
2022-09-02T04:09:12.444Z,75.34
2022-09-02T04:10:12.445Z,75.34
2022-09-02T04:11:12.424Z,75.74
2022-09-02T04:12:12.415Z,75.44
2022-09-02T04:13:12.408Z,75.13
2022-09-02T04:14:12.408Z,76.25
2022-09-02T04:15:12.398Z,75.95
2022-09-02T04:16:12.415Z,75.44
2022-09-02T04:17:12.361Z,76.15
2022-09-02T04:18:12.353Z,75.85
2022-09-02T04:19:12.346Z,76.05
2022-09-02T04:20:12.356Z,76.46
2022-09-02T04:21:12.329Z,76.05
2022-09-02T04:22:12.318Z,75.30
2022-09-02T04:23:12.309Z,75.64
2022-09-02T04:24:12.302Z,75.71
2022-09-02T04:25:12.302Z,74.79
2022-09-02T04:26:12.341Z,75.20
2022-09-02T04:27:12.272Z,74.49
2022-09-02T04:28:12.269Z,74.28
2022-09-02T04:29:12.247Z,74.76
2022-09-02T04:30:12.256Z,74.55
2022-09-02T04:31:12.317Z,75.10
2022-09-02T04:32:12.224Z,74.28
2022-09-02T04:33:12.206Z,74.69
2022-09-02T04:34:12.197Z,74.99
2022-09-02T04:35:12.206Z,75.92
2022-09-02T04:36:12.808Z,76.22
2022-09-02T04:37:12.177Z,75.71
2022-09-02T04:38:12.166Z,75.20
2022-09-02T04:39:12.156Z,75.27
2022-09-02T04:40:12.231Z,74.96
2022-09-02T04:41:12.133Z,74.55
2022-09-02T04:42:12.124Z,74.96
2022-09-02T04:43:12.131Z,74.65
2022-09-02T04:44:12.122Z,74.86
2022-09-02T04:45:12.108Z,74.76
2022-09-02T04:46:12.268Z,74.55
2022-09-02T04:47:12.079Z,75.06
2022-09-02T04:48:12.081Z,73.84
2022-09-02T04:49:12.060Z,74.86
2022-09-02T04:50:12.064Z,75.10
2022-09-02T04:51:12.033Z,75.51
2022-09-02T04:52:12.040Z,75.98
2022-09-02T04:53:12.090Z,75.40
2022-09-02T04:54:12.015Z,74.96
2022-09-02T04:55:12.023Z,74.76
2022-09-02T04:56:12.018Z,74.25
2022-09-02T04:57:11.981Z,75.06
2022-09-02T04:58:11.971Z,74.86
2022-09-02T04:59:11.961Z,74.96
2022-09-02T05:00:11.971Z,74.11
2022-09-02T05:01:12.030Z,74.82
2022-09-02T05:02:12.105Z,74.32
2022-09-02T05:03:11.918Z,73.40
2022-09-02T05:04:11.944Z,74.32
2022-09-02T05:05:11.907Z,74.82
2022-09-02T05:06:11.897Z,74.41
2022-09-02T05:07:11.883Z,74.52
2022-09-02T05:08:11.904Z,73.30
2022-09-02T05:09:11.860Z,74.93
2022-09-02T05:10:11.874Z,74.82
2022-09-02T05:11:11.841Z,74.72
2022-09-02T05:12:11.838Z,73.40
2022-09-02T05:13:11.825Z,74.82
2022-09-02T05:14:11.816Z,74.21
2022-09-02T05:15:11.833Z,75.02
2022-09-02T05:16:11.847Z,74.99
2022-09-02T05:17:11.786Z,74.89
2022-09-02T05:18:11.778Z,74.79
2022-09-02T05:19:11.774Z,74.28
2022-09-02T05:20:11.776Z,73.77
2022-09-02T05:21:11.750Z,73.97
2022-09-02T05:22:11.741Z,73.36
2022-09-02T05:23:11.726Z,74.08
2022-09-02T05:24:11.724Z,75.09
2022-09-02T05:25:11.716Z,74.08
2022-09-02T05:26:11.707Z,73.57
2022-09-02T05:27:11.687Z,73.26
2022-09-02T05:28:11.696Z,74.08
2022-09-02T05:29:11.665Z,74.89
2022-09-02T05:30:11.678Z,74.79
2022-09-02T05:31:11.704Z,74.79
2022-09-02T05:32:11.640Z,74.48
2022-09-02T05:33:13.596Z,75.09
2022-09-02T05:34:11.619Z,74.99
2022-09-02T05:35:11.640Z,75.64
2022-09-02T05:36:11.604Z,75.50
2022-09-02T05:37:11.596Z,75.09
2022-09-02T05:38:11.581Z,74.58
2022-09-02T05:39:11.578Z,76.15
2022-09-02T05:40:11.646Z,75.81
2022-09-02T05:41:11.542Z,76.45
2022-09-02T05:42:11.550Z,76.21
2022-09-02T05:43:11.532Z,75.40
2022-09-02T05:44:11.530Z,76.21
2022-09-02T05:45:11.526Z,76.35
2022-09-02T05:46:11.773Z,76.35
2022-09-02T05:47:11.491Z,76.11
2022-09-02T05:48:11.498Z,75.57
2022-09-02T05:49:11.491Z,75.70
2022-09-02T05:50:11.477Z,76.11
2022-09-02T05:51:11.448Z,76.31
2022-09-02T05:52:11.445Z,76.31
2022-09-02T05:53:14.716Z,76.28
2022-09-02T05:54:11.422Z,75.67
2022-09-02T05:55:11.698Z,75.57
2022-09-02T05:56:11.406Z,74.92
2022-09-02T05:57:11.391Z,74.82
2022-09-02T05:58:11.384Z,75.12
2022-09-02T05:59:11.378Z,75.33
2022-09-02T06:00:11.388Z,75.87
2022-09-02T06:01:12.356Z,76.25
2022-09-02T06:02:11.583Z,76.28
2022-09-02T06:03:11.380Z,75.87
2022-09-02T06:04:11.324Z,75.63
2022-09-02T06:05:11.311Z,75.19
2022-09-02T06:06:11.315Z,75.23
2022-09-02T06:07:11.774Z,75.33
2022-09-02T06:08:11.290Z,74.68
2022-09-02T06:09:11.275Z,74.68
2022-09-02T06:10:11.268Z,75.29
2022-09-02T06:11:11.267Z,75.29
2022-09-02T06:12:11.249Z,74.55
2022-09-02T06:13:11.237Z,74.68
2022-09-02T06:14:11.229Z,75.16
2022-09-02T06:15:11.211Z,74.44
2022-09-02T06:16:11.285Z,74.28
2022-09-02T06:17:11.194Z,75.29
2022-09-02T06:18:11.187Z,74.28
2022-09-02T06:19:11.167Z,74.99
2022-09-02T06:20:11.949Z,74.99
2022-09-02T06:21:11.170Z,74.58
2022-09-02T06:22:11.532Z,74.79
2022-09-02T06:23:11.129Z,74.88
2022-09-02T06:24:11.126Z,75.60
2022-09-02T06:25:11.112Z,75.40
2022-09-02T06:26:11.124Z,74.38
2022-09-02T06:27:11.101Z,74.14
2022-09-02T06:28:11.087Z,74.04
2022-09-02T06:29:11.085Z,74.31
2022-09-02T06:30:11.103Z,74.14
2022-09-02T06:31:11.120Z,74.41
2022-09-02T06:32:11.050Z,74.51
2022-09-02T06:33:11.039Z,74.62
2022-09-02T06:34:11.022Z,74.31
2022-09-02T06:35:11.023Z,74.01
2022-09-02T06:36:11.089Z,74.41
2022-09-02T06:37:10.996Z,74.01
2022-09-02T06:38:10.989Z,73.57
2022-09-02T06:39:10.977Z,72.45
2022-09-02T06:40:11.153Z,73.06
2022-09-02T06:41:10.954Z,73.26
2022-09-02T06:42:10.956Z,73.77
2022-09-02T06:43:10.940Z,73.97
2022-09-02T06:44:10.927Z,72.96
2022-09-02T06:45:10.929Z,72.75
2022-09-02T06:46:10.970Z,72.52
2022-09-02T06:47:10.899Z,72.45
2022-09-02T06:48:10.888Z,72.31
2022-09-02T06:49:10.876Z,71.67
2022-09-02T06:50:10.868Z,71.06
2022-09-02T06:51:10.865Z,71.16
2022-09-02T06:52:10.862Z,69.84
2022-09-02T06:53:10.836Z,69.54
2022-09-02T06:54:10.903Z,71.06
2022-09-02T06:55:10.821Z,71.57
2022-09-02T06:56:10.832Z,70.86
2022-09-02T06:57:10.808Z,71.53
2022-09-02T06:58:10.791Z,71.84
2022-09-02T06:59:10.785Z,71.84
2022-09-02T07:00:10.774Z,71.03
2022-09-02T07:01:10.866Z,70.42
2022-09-02T07:02:10.940Z,68.09
2022-09-02T07:03:10.734Z,68.26
2022-09-02T07:04:10.730Z,69.41
2022-09-02T07:05:10.723Z,68.56
2022-09-02T07:06:10.717Z,68.16
2022-09-02T07:07:10.697Z,68.87
2022-09-02T07:08:10.692Z,68.56
2022-09-02T07:09:10.718Z,68.33
2022-09-02T07:10:10.683Z,67.93
2022-09-02T07:11:10.670Z,68.10
2022-09-02T07:12:10.649Z,68.02
2022-09-02T07:13:10.633Z,66.88
2022-09-02T07:14:10.629Z,66.67
2022-09-02T07:15:10.625Z,65.84
2022-09-02T07:16:10.661Z,65.61
2022-09-02T07:17:10.638Z,65.50
2022-09-02T07:18:10.583Z,65.30
2022-09-02T07:19:15.021Z,64.97
2022-09-02T07:20:11.567Z,64.76
2022-09-02T07:21:10.566Z,63.65
2022-09-02T07:22:10.547Z,63.15
2022-09-02T07:23:10.530Z,62.92
2022-09-02T07:24:10.527Z,64.16
2022-09-02T07:25:10.509Z,63.42
2022-09-02T07:26:10.582Z,62.08
2022-09-02T07:27:10.493Z,61.37
2022-09-02T07:28:10.494Z,61.17
2022-09-02T07:29:10.475Z,60.64
2022-09-02T07:30:10.468Z,59.53
2022-09-02T07:31:10.489Z,60.94
2022-09-02T07:32:10.449Z,60.84
2022-09-02T07:33:10.434Z,59.80
2022-09-02T07:34:10.427Z,59.30
2022-09-02T07:35:10.417Z,59.57
2022-09-02T07:36:11.148Z,59.47
2022-09-02T07:37:11.091Z,59.37
2022-09-02T07:38:10.389Z,58.14
2022-09-02T07:39:10.374Z,58.94
2022-09-02T07:40:10.414Z,58.44
2022-09-02T07:41:10.384Z,57.93
2022-09-02T07:42:10.349Z,57.12
2022-09-02T07:43:10.338Z,57.20
2022-09-02T07:44:10.325Z,56.60
2022-09-02T07:45:10.318Z,56.60
2022-09-02T07:46:10.399Z,56.57
2022-09-02T07:47:10.295Z,56.40
2022-09-02T07:48:10.293Z,55.79
2022-09-02T07:49:10.277Z,55.46
2022-09-02T07:50:20.091Z,56.27
2022-09-02T07:51:11.274Z,55.96
2022-09-02T07:52:10.253Z,56.67
2022-09-02T07:53:10.240Z,56.67
2022-09-02T07:54:10.235Z,55.54
2022-09-02T07:55:14.499Z,56.64
2022-09-02T07:56:10.227Z,56.84
2022-09-02T07:57:10.202Z,55.81
2022-09-02T07:58:10.192Z,55.54
2022-09-02T07:59:11.184Z,56.31
2022-09-02T08:00:10.178Z,56.38
2022-09-02T08:01:10.294Z,54.71
2022-09-02T08:02:10.194Z,53.50
2022-09-02T08:03:10.212Z,53.47
2022-09-02T08:04:10.133Z,53.88
2022-09-02T08:05:10.136Z,53.67
2022-09-02T08:06:10.141Z,53.97
2022-09-02T08:07:10.122Z,53.14
2022-09-02T08:08:10.111Z,52.14
2022-09-02T08:09:10.090Z,52.74
2022-09-02T08:10:10.081Z,52.55
2022-09-02T08:11:10.087Z,51.74
2022-09-02T08:12:10.063Z,52.12
2022-09-02T08:13:10.053Z,52.72
2022-09-02T08:14:10.047Z,52.42
2022-09-02T08:15:10.027Z,50.61
2022-09-02T08:16:10.116Z,50.71
2022-09-02T08:17:10.013Z,51.51
2022-09-02T08:18:14.465Z,50.68
2022-09-02T08:19:10.985Z,51.19
2022-09-02T08:20:12.434Z,50.41
2022-09-02T08:21:09.991Z,50.81
2022-09-02T08:22:09.968Z,50.71
2022-09-02T08:23:18.449Z,51.49
2022-09-02T08:24:10.951Z,51.39
2022-09-02T08:25:09.931Z,49.96
2022-09-02T08:26:09.960Z,50.86
2022-09-02T08:27:09.931Z,50.66
2022-09-02T08:28:09.908Z,50.84
2022-09-02T08:29:09.894Z,50.59
2022-09-02T08:30:09.932Z,47.46
2022-09-02T08:31:09.898Z,46.89
2022-09-02T08:32:09.925Z,47.42
2022-09-02T08:33:09.858Z,44.35
2022-09-02T08:34:09.859Z,43.11
2022-09-02T08:35:09.835Z,43.37
2022-09-02T08:36:09.846Z,40.08
2022-09-02T08:37:09.820Z,41.79
2022-09-02T08:38:09.814Z,42.19
2022-09-02T08:39:09.813Z,42.17
2022-09-02T08:40:09.864Z,41.17
2022-09-02T08:41:09.798Z,40.98
2022-09-02T08:42:09.774Z,41.61
2022-09-02T08:43:09.767Z,42.01
2022-09-02T08:44:09.872Z,41.91
2022-09-02T08:45:09.735Z,41.69
2022-09-02T08:46:09.859Z,41.30
2022-09-02T08:47:09.724Z,41.69
2022-09-02T08:48:09.738Z,42.15
2022-09-02T08:49:09.702Z,41.58
2022-09-02T08:50:09.708Z,41.17
2022-09-02T08:51:10.043Z,41.08
2022-09-02T08:52:09.670Z,41.28
2022-09-02T08:53:09.661Z,41.67
2022-09-02T08:54:09.649Z,41.66
2022-09-02T08:55:09.644Z,41.16
2022-09-02T08:56:09.632Z,41.74
2022-09-02T08:57:09.685Z,40.96
2022-09-02T08:58:09.620Z,40.56
2022-09-02T08:59:09.602Z,41.28
2022-09-02T09:00:09.590Z,41.47
2022-09-02T09:01:09.668Z,41.28
2022-09-02T09:02:09.665Z,41.17
2022-09-02T09:03:09.565Z,41.87
2022-09-02T09:04:09.581Z,41.77
2022-09-02T09:05:09.545Z,41.46
2022-09-02T09:06:09.541Z,41.55
2022-09-02T09:07:09.552Z,42.05
2022-09-02T09:08:12.382Z,40.56
2022-09-02T09:09:10.506Z,40.14
2022-09-02T09:10:09.501Z,41.24
2022-09-02T09:11:09.497Z,41.93
2022-09-02T09:12:09.488Z,40.84
2022-09-02T09:13:09.477Z,39.53
2022-09-02T09:14:09.474Z,39.11
2022-09-02T09:15:09.456Z,39.90
2022-09-02T09:16:09.492Z,39.61
2022-09-02T09:17:09.465Z,39.29
2022-09-02T09:18:09.444Z,39.59
2022-09-02T09:19:09.433Z,40.47
2022-09-02T09:20:09.421Z,38.58
2022-09-02T09:21:10.377Z,37.01
2022-09-02T09:22:09.662Z,38.30
2022-09-02T09:23:09.431Z,39.39
2022-09-02T09:24:09.363Z,38.30
2022-09-02T09:25:09.387Z,38.30
2022-09-02T09:26:09.352Z,37.30
2022-09-02T09:27:09.350Z,37.01
2022-09-02T09:28:09.343Z,38.70
2022-09-02T09:29:09.320Z,37.41
2022-09-02T09:30:14.319Z,36.69
2022-09-02T09:31:09.453Z,36.79
2022-09-02T09:32:09.330Z,35.41
2022-09-02T09:33:09.283Z,36.61
2022-09-02T09:34:09.267Z,36.90
2022-09-02T09:35:09.258Z,36.40
2022-09-02T09:36:09.251Z,35.11
2022-09-02T09:37:09.265Z,34.91
2022-09-02T09:38:09.248Z,36.20
2022-09-02T09:39:09.224Z,35.90
2022-09-02T09:40:09.230Z,37.17
2022-09-02T09:41:09.203Z,36.46
2022-09-02T09:42:09.558Z,35.25
2022-09-02T09:43:14.179Z,33.09
2022-09-02T09:44:10.172Z,33.59
2022-09-02T09:45:09.169Z,34.76
2022-09-02T09:46:09.196Z,33.28
2022-09-02T09:47:09.169Z,34.74
2022-09-02T09:48:09.140Z,33.94
2022-09-02T09:49:09.136Z,33.34
2022-09-02T09:50:09.196Z,33.33
2022-09-02T09:51:09.191Z,33.84
2022-09-02T09:52:09.125Z,33.54
2022-09-02T09:53:09.103Z,33.75
2022-09-02T09:54:09.084Z,33.26
2022-09-02T09:55:11.547Z,33.06
2022-09-02T09:56:09.071Z,33.16
2022-09-02T09:57:09.083Z,33.54
2022-09-02T09:58:09.046Z,33.70
2022-09-02T09:59:09.085Z,33.18
2022-09-02T10:00:09.032Z,30.99
2022-09-02T10:01:09.062Z,30.78
2022-09-02T10:02:09.015Z,31.16
2022-09-02T10:03:09.012Z,30.68
2022-09-02T10:04:32.319Z,31.67
2022-09-02T10:05:09.976Z,28.80
2022-09-02T10:06:08.963Z,29.02
2022-09-02T10:07:08.961Z,28.52
2022-09-02T10:08:10.852Z,29.71
2022-09-02T10:09:09.936Z,30.02
2022-09-02T10:10:08.930Z,29.92
2022-09-02T10:11:08.916Z,28.92
2022-09-02T10:12:08.909Z,29.10
2022-09-02T10:13:09.016Z,29.78
2022-09-02T10:14:08.896Z,29.19
2022-09-02T10:15:08.885Z,29.79
2022-09-02T10:16:08.917Z,30.21
2022-09-02T10:17:08.866Z,30.21
2022-09-02T10:18:08.867Z,30.05
2022-09-02T10:19:08.841Z,30.13
2022-09-02T10:20:08.831Z,29.11
2022-09-02T10:21:15.418Z,28.96
2022-09-02T10:22:09.817Z,28.52
2022-09-02T10:23:08.821Z,25.74
2022-09-02T10:24:08.795Z,26.03
2022-09-02T10:25:08.792Z,28.00
2022-09-02T10:26:08.783Z,25.55
2022-09-02T10:27:08.788Z,26.42
2022-09-02T10:28:08.758Z,26.28
2022-09-02T10:29:08.751Z,25.48
2022-09-02T10:30:08.738Z,25.31
2022-09-02T10:31:08.787Z,26.42
2022-09-02T10:32:08.741Z,26.54
2022-09-02T10:33:08.717Z,26.97
2022-09-02T10:34:08.704Z,27.28
2022-09-02T10:35:08.697Z,27.51
2022-09-02T10:36:08.687Z,28.02
2022-09-02T10:37:08.688Z,28.61
2022-09-02T10:38:08.717Z,28.11
2022-09-02T10:39:08.661Z,29.10
2022-09-02T10:40:08.743Z,28.91
2022-09-02T10:41:08.639Z,28.02
2022-09-02T10:42:08.651Z,28.70
2022-09-02T10:43:08.620Z,29.51
2022-09-02T10:44:08.616Z,29.51
2022-09-02T10:45:08.608Z,28.74
2022-09-02T10:46:08.590Z,30.23
2022-09-02T10:47:08.586Z,30.33
2022-09-02T10:48:08.642Z,29.16
2022-09-02T10:49:08.559Z,30.95
2022-09-02T10:50:08.551Z,31.25
2022-09-02T10:51:08.543Z,30.34
2022-09-02T10:52:08.567Z,30.08
2022-09-02T10:53:09.597Z,29.88
2022-09-02T10:54:08.507Z,30.29
2022-09-02T10:55:08.506Z,30.68
2022-09-02T10:56:08.491Z,31.48
2022-09-02T10:57:08.486Z,31.10
2022-09-02T10:58:08.480Z,31.20
2022-09-02T10:59:08.463Z,31.99
2022-09-02T11:00:08.451Z,31.81
2022-09-02T11:01:08.498Z,31.71
2022-09-02T11:02:08.432Z,32.70
2022-09-02T11:03:08.787Z,32.70
2022-09-02T11:04:08.408Z,32.60
2022-09-02T11:05:08.402Z,33.00
2022-09-02T11:06:08.394Z,32.58
2022-09-02T11:07:08.384Z,32.46
2022-09-02T11:08:08.389Z,33.54
2022-09-02T11:09:08.365Z,32.42
2022-09-02T11:10:08.353Z,30.54
2022-09-02T11:11:08.344Z,31.15
2022-09-02T11:12:08.329Z,31.43
2022-09-02T11:13:08.339Z,29.97
2022-09-02T11:14:08.338Z,27.51
2022-09-02T11:15:08.308Z,29.19
2022-09-02T11:16:08.353Z,28.99
2022-09-02T11:17:13.168Z,28.41
2022-09-02T11:18:09.318Z,28.85
2022-09-02T11:19:08.274Z,30.47
2022-09-02T11:20:08.256Z,30.98
2022-09-02T11:21:08.253Z,32.76
2022-09-02T11:22:08.242Z,31.36
2022-09-02T11:23:08.248Z,31.46
2022-09-02T11:24:08.223Z,31.36
2022-09-02T11:25:08.233Z,32.14
2022-09-02T11:26:08.200Z,31.65
2022-09-02T11:27:25.491Z,32.17
2022-09-02T11:28:09.194Z,32.07
2022-09-02T11:29:08.185Z,32.67
2022-09-02T11:30:08.181Z,31.36
2022-09-02T11:31:08.165Z,31.91
2022-09-02T11:32:08.155Z,29.65
2022-09-02T11:33:08.160Z,27.45
2022-09-02T11:34:08.160Z,25.94
2022-09-02T11:35:08.129Z,26.03
2022-09-02T11:36:08.246Z,27.12
2022-09-02T11:37:08.107Z,28.00
2022-09-02T11:38:08.106Z,27.33
2022-09-02T11:39:08.105Z,27.64
2022-09-02T11:40:30.592Z,28.37
2022-09-02T11:42:09.086Z,29.07
2022-09-02T11:43:08.066Z,29.88
2022-09-02T11:44:08.037Z,29.78
2022-09-02T11:45:08.056Z,28.99
2022-09-02T11:46:08.040Z,28.91
2022-09-02T11:47:08.019Z,28.21
2022-09-02T11:48:08.018Z,29.02
2022-09-02T11:49:08.387Z,30.00
2022-09-02T11:50:07.975Z,29.10
2022-09-02T11:51:08.029Z,28.99
2022-09-02T11:52:07.957Z,28.08
2022-09-02T11:53:07.970Z,28.16
2022-09-02T11:54:07.939Z,27.74
2022-09-02T11:55:07.931Z,27.23
2022-09-02T11:56:07.921Z,26.62
2022-09-02T11:57:07.939Z,26.11
2022-09-02T11:58:07.926Z,26.10
2022-09-02T11:59:07.897Z,26.29
2022-09-02T12:00:07.880Z,25.99
2022-09-02T12:01:07.881Z,26.10
2022-09-02T12:02:07.860Z,24.73
2022-09-02T12:03:22.338Z,25.32
2022-09-02T12:05:09.234Z,27.33
2022-09-02T12:06:07.902Z,27.75
2022-09-02T12:07:08.964Z,28.65
2022-09-02T12:08:07.807Z,28.34
2022-09-02T12:09:07.812Z,27.67
2022-09-02T12:10:07.784Z,27.57
2022-09-02T12:11:07.775Z,27.19
2022-09-02T12:12:07.766Z,27.50
2022-09-02T12:13:08.386Z,27.40
2022-09-02T12:14:08.189Z,27.50
2022-09-02T12:15:07.745Z,26.61
2022-09-02T12:16:07.766Z,25.90
2022-09-02T12:17:07.726Z,27.59
2022-09-02T12:18:07.722Z,27.89
2022-09-02T12:19:07.882Z,28.00
2022-09-02T12:20:07.689Z,28.19
2022-09-02T12:21:07.683Z,28.65
2022-09-02T12:22:07.698Z,28.09
2022-09-02T12:23:07.679Z,25.23
2022-09-02T12:24:07.655Z,23.67
2022-09-02T12:25:07.643Z,22.45
2022-09-02T12:26:07.636Z,23.28
2022-09-02T12:27:07.625Z,24.08
2022-09-02T12:28:07.636Z,23.93
2022-09-02T12:29:07.612Z,22.81
2022-09-02T12:30:07.601Z,22.39
2022-09-02T12:31:07.880Z,21.56
2022-09-02T12:32:07.579Z,20.04
2022-09-02T12:33:07.585Z,18.46
2022-09-02T12:34:07.563Z,20.31
2022-09-02T12:35:07.555Z,19.76
2022-09-02T12:36:07.550Z,19.09
2022-09-02T12:37:07.537Z,19.20
2022-09-02T12:38:07.548Z,21.29
2022-09-02T12:39:09.885Z,21.40
2022-09-02T12:40:07.648Z,21.22
2022-09-02T12:41:07.729Z,22.41
2022-09-02T12:42:07.495Z,21.54
2022-09-02T12:43:07.500Z,21.75
2022-09-02T12:44:07.467Z,21.42
2022-09-02T12:45:07.468Z,21.42
2022-09-02T12:46:07.494Z,19.45
2022-09-02T12:47:07.445Z,18.75
2022-09-02T12:48:07.446Z,21.14
2022-09-02T12:49:07.428Z,18.29
2022-09-02T12:50:07.417Z,18.46
2022-09-02T12:51:07.421Z,16.23
2022-09-02T12:52:07.402Z,17.09
2022-09-02T12:53:07.413Z,17.12
2022-09-02T12:54:07.380Z,16.78